sensor_id;sensor_type;location;lat;lon;timestamp;pressure;altitude;pressure_sealevel;temperature;humidity
5609;BME280;2826;51.354;9.588;2022-10-16T00:00:47;97793.84;;;14.22;100.00
5609;BME280;2826;51.354;9.588;2022-10-16T00:03:15;97786.88;;;14.23;100.00
5609;BME280;2826;51.354;9.588;2022-10-16T00:05:43;97798.34;;;14.20;100.00
5609;BME280;2826;51.354;9.588;2022-10-16T00:08:11;97804.41;;;14.21;100.00
5609;BME280;2826;51.354;9.588;2022-10-16T00:10:39;97813.91;;;14.22;100.00
5609;BME280;2826;51.354;9.588;2022-10-16T00:13:07;97813.97;;;14.20;100.00
5609;BME280;2826;51.354;9.588;2022-10-16T00:15:35;97813.03;;;14.21;100.00
5609;BME280;2826;51.354;9.588;2022-10-16T00:18:03;97808.75;;;14.20;100.00
5609;BME280;2826;51.354;9.588;2022-10-16T00:20:33;97800.47;;;14.14;100.00
5609;BME280;2826;51.354;9.588;2022-10-16T00:23:02;97817.44;;;14.21;100.00
5609;BME280;2826;51.354;9.588;2022-10-16T00:25:30;97815.75;;;14.20;100.00
5609;BME280;2826;51.354;9.588;2022-10-16T00:27:58;97809.63;;;14.21;100.00
5609;BME280;2826;51.354;9.588;2022-10-16T00:30:25;97807.81;;;14.21;100.00
5609;BME280;2826;51.354;9.588;2022-10-16T00:32:53;97805.22;;;14.21;100.00
5609;BME280;2826;51.354;9.588;2022-10-16T00:35:20;97802.63;;;14.21;100.00
5609;BME280;2826;51.354;9.588;2022-10-16T00:37:48;97802.69;;;14.20;100.00
5609;BME280;2826;51.354;9.588;2022-10-16T00:40:15;97802.69;;;14.20;100.00
5609;BME280;2826;51.354;9.588;2022-10-16T00:42:42;97798.50;;;14.17;100.00
5609;BME280;2826;51.354;9.588;2022-10-16T00:45:10;97797.78;;;14.15;100.00
5609;BME280;2826;51.354;9.588;2022-10-16T00:47:40;97801.03;;;14.19;100.00
5609;BME280;2826;51.354;9.588;2022-10-16T00:50:10;97810.72;;;14.17;100.00
5609;BME280;2826;51.354;9.588;2022-10-16T00:52:39;97808.13;;;14.17;100.00
5609;BME280;2826;51.354;9.588;2022-10-16T00:55:10;97801.13;;;14.17;100.00
5609;BME280;2826;51.354;9.588;2022-10-16T00:57:37;97797.88;;;14.14;100.00
5609;BME280;2826;51.354;9.588;2022-10-16T01:00:07;97800.47;;;14.14;100.00
5609;BME280;2826;51.354;9.588;2022-10-16T01:02:34;97797.31;;;14.08;100.00
5609;BME280;2826;51.354;9.588;2022-10-16T01:05:02;97811.75;;;14.14;100.00
5609;BME280;2826;51.354;9.588;2022-10-16T01:07:37;97800.84;;;14.07;100.00
5609;BME280;2826;51.354;9.588;2022-10-16T01:10:14;97808.22;;;14.15;100.00
5609;BME280;2826;51.354;9.588;2022-10-16T01:12:47;97810.81;;;14.15;100.00
5609;BME280;2826;51.354;9.588;2022-10-16T01:15:21;97805.50;;;14.17;100.00
5609;BME280;2826;51.354;9.588;2022-10-16T01:17:53;97803.25;;;14.10;100.00
5609;BME280;2826;51.354;9.588;2022-10-16T01:20:26;97802.69;;;14.05;100.00
5609;BME280;2826;51.354;9.588;2022-10-16T01:23:15;97824.13;;;14.10;100.00
5609;BME280;2826;51.354;9.588;2022-10-16T01:26:02;97824.03;;;14.12;100.00
5609;BME280;2826;51.354;9.588;2022-10-16T01:28:39;97827.66;;;14.09;100.00
5609;BME280;2826;51.354;9.588;2022-10-16T01:31:09;97824.31;;;14.07;100.00
5609;BME280;2826;51.354;9.588;2022-10-16T01:33:40;97831.22;;;14.08;100.00
5609;BME280;2826;51.354;9.588;2022-10-16T01:36:12;97814.06;;;14.04;100.00
5609;BME280;2826;51.354;9.588;2022-10-16T01:38:42;97817.78;;;14.00;100.00
5609;BME280;2826;51.354;9.588;2022-10-16T01:41:15;97818.81;;;13.97;100.00
5609;BME280;2826;51.354;9.588;2022-10-16T01:43:46;97819.44;;;14.01;100.00
5609;BME280;2826;51.354;9.588;2022-10-16T01:46:18;97827.44;;;13.98;100.00
5609;BME280;2826;51.354;9.588;2022-10-16T01:48:47;97833.59;;;13.97;100.00
5609;BME280;2826;51.354;9.588;2022-10-16T01:51:17;97815.44;;;13.95;100.00
5609;BME280;2826;51.354;9.588;2022-10-16T01:53:49;97815.63;;;13.92;100.00
5609;BME280;2826;51.354;9.588;2022-10-16T01:56:19;97819.06;;;13.93;100.00
5609;BME280;2826;51.354;9.588;2022-10-16T01:58:52;97824.28;;;13.93;100.00
5609;BME280;2826;51.354;9.588;2022-10-16T02:01:22;97835.63;;;13.92;100.00
5609;BME280;2826;51.354;9.588;2022-10-16T02:03:52;97840.69;;;13.95;100.00
5609;BME280;2826;51.354;9.588;2022-10-16T02:06:20;97838.06;;;13.95;100.00
5609;BME280;2826;51.354;9.588;2022-10-16T02:08:48;97847.41;;;13.99;100.00
5609;BME280;2826;51.354;9.588;2022-10-16T02:11:15;97837.06;;;13.97;100.00
5609;BME280;2826;51.354;9.588;2022-10-16T02:13:45;97842.91;;;14.01;100.00
5609;BME280;2826;51.354;9.588;2022-10-16T02:16:14;97848.97;;;14.02;100.00
5609;BME280;2826;51.354;9.588;2022-10-16T02:18:42;97846.28;;;14.03;100.00
5609;BME280;2826;51.354;9.588;2022-10-16T02:21:15;97840.78;;;14.08;100.00
5609;BME280;2826;51.354;9.588;2022-10-16T02:23:50;97832.22;;;14.06;100.00
5609;BME280;2826;51.354;9.588;2022-10-16T02:26:25;97826.25;;;14.04;100.00
5609;BME280;2826;51.354;9.588;2022-10-16T02:28:59;97824.59;;;14.03;100.00
5609;BME280;2826;51.354;9.588;2022-10-16T02:31:33;97820.09;;;13.90;100.00
5609;BME280;2826;51.354;9.588;2022-10-16T02:34:03;97834.13;;;13.88;100.00
5609;BME280;2826;51.354;9.588;2022-10-16T02:36:33;97844.31;;;13.92;100.00
5609;BME280;2826;51.354;9.588;2022-10-16T02:39:02;97844.31;;;13.92;100.00
5609;BME280;2826;51.354;9.588;2022-10-16T02:41:31;97840.69;;;13.95;100.00
5609;BME280;2826;51.354;9.588;2022-10-16T02:43:58;97814.22;;;13.72;100.00
5609;BME280;2826;51.354;9.588;2022-10-16T02:46:25;97837.69;;;13.87;100.00
5609;BME280;2826;51.354;9.588;2022-10-16T02:48:53;97836.66;;;13.89;100.00
5609;BME280;2826;51.354;9.588;2022-10-16T02:51:21;97825.50;;;13.87;100.00
5609;BME280;2826;51.354;9.588;2022-10-16T02:53:47;97831.44;;;13.89;100.00
5609;BME280;2826;51.354;9.588;2022-10-16T02:56:14;97841.97;;;13.88;100.00
5609;BME280;2826;51.354;9.588;2022-10-16T02:58:41;97845.50;;;13.87;100.00
5609;BME280;2826;51.354;9.588;2022-10-16T03:01:09;97835.44;;;13.80;100.00
5609;BME280;2826;51.354;9.588;2022-10-16T03:03:37;97838.22;;;13.77;100.00
5609;BME280;2826;51.354;9.588;2022-10-16T03:06:06;97842.50;;;13.78;100.00
5609;BME280;2826;51.354;9.588;2022-10-16T03:08:32;97844.72;;;13.70;100.00
5609;BME280;2826;51.354;9.588;2022-10-16T03:10:59;97835.59;;;13.63;100.00
5609;BME280;2826;51.354;9.588;2022-10-16T03:13:27;97840.97;;;13.59;100.00
5609;BME280;2826;51.354;9.588;2022-10-16T03:15:54;97842.72;;;13.59;100.00
5609;BME280;2826;51.354;9.588;2022-10-16T03:18:21;97858.63;;;13.54;100.00
5609;BME280;2826;51.354;9.588;2022-10-16T03:20:48;97855.25;;;13.52;100.00
5609;BME280;2826;51.354;9.588;2022-10-16T03:23:17;97854.53;;;13.50;100.00
5609;BME280;2826;51.354;9.588;2022-10-16T03:25:44;97871.75;;;13.53;100.00
5609;BME280;2826;51.354;9.588;2022-10-16T03:28:10;97870.97;;;13.51;100.00
5609;BME280;2826;51.354;9.588;2022-10-16T03:30:37;97846.78;;;13.32;100.00
5609;BME280;2826;51.354;9.588;2022-10-16T03:33:05;97875.47;;;13.47;100.00
5609;BME280;2826;51.354;9.588;2022-10-16T03:35:32;97875.75;;;13.42;100.00
5609;BME280;2826;51.354;9.588;2022-10-16T03:37:59;97868.94;;;13.40;100.00
5609;BME280;2826;51.354;9.588;2022-10-16T03:40:28;97876.09;;;13.36;100.00
5609;BME280;2826;51.354;9.588;2022-10-16T03:42:56;97874.56;;;13.32;100.00
5609;BME280;2826;51.354;9.588;2022-10-16T03:45:23;97872.91;;;13.31;100.00
5609;BME280;2826;51.354;9.588;2022-10-16T03:47:51;97876.44;;;13.30;100.00
5609;BME280;2826;51.354;9.588;2022-10-16T03:50:17;97874.94;;;13.26;100.00
5609;BME280;2826;51.354;9.588;2022-10-16T03:52:44;97871.66;;;13.22;100.00
5609;BME280;2826;51.354;9.588;2022-10-16T03:55:11;97868.38;;;13.18;100.00
5609;BME280;2826;51.354;9.588;2022-10-16T03:57:39;97870.31;;;13.15;100.00
5609;BME280;2826;51.354;9.588;2022-10-16T04:00:07;97889.38;;;13.15;100.00
5609;BME280;2826;51.354;9.588;2022-10-16T04:02:37;97891.13;;;13.15;100.00
5609;BME280;2826;51.354;9.588;2022-10-16T04:05:05;97882.56;;;13.13;100.00
5609;BME280;2826;51.354;9.588;2022-10-16T04:07:32;97888.69;;;13.12;100.00
5609;BME280;2826;51.354;9.588;2022-10-16T04:09:59;97894.25;;;13.05;100.00
5609;BME280;2826;51.354;9.588;2022-10-16T04:12:26;97900.38;;;13.04;100.00
5609;BME280;2826;51.354;9.588;2022-10-16T04:14:55;97900.28;;;13.06;100.00
5609;BME280;2826;51.354;9.588;2022-10-16T04:17:22;97913.22;;;13.07;100.00
5609;BME280;2826;51.354;9.588;2022-10-16T04:19:49;97907.94;;;13.09;100.00
5609;BME280;2826;51.354;9.588;2022-10-16T04:22:16;97902.06;;;13.05;100.00
5609;BME280;2826;51.354;9.588;2022-10-16T04:24:42;97908.19;;;13.04;100.00
5609;BME280;2826;51.354;9.588;2022-10-16T04:27:09;97912.47;;;13.05;100.00
5609;BME280;2826;51.354;9.588;2022-10-16T04:29:36;97910.81;;;13.04;100.00
5609;BME280;2826;51.354;9.588;2022-10-16T04:32:05;97910.81;;;13.04;100.00
5609;BME280;2826;51.354;9.588;2022-10-16T04:34:31;97896.78;;;13.07;100.00
5609;BME280;2826;51.354;9.588;2022-10-16T04:36:58;97908.00;;;13.07;100.00
5609;BME280;2826;51.354;9.588;2022-10-16T04:39:25;97911.38;;;13.10;100.00
5609;BME280;2826;51.354;9.588;2022-10-16T04:41:52;97907.84;;;13.11;100.00
5609;BME280;2826;51.354;9.588;2022-10-16T04:44:18;97898.94;;;13.15;100.00
5609;BME280;2826;51.354;9.588;2022-10-16T04:46:45;97894.69;;;13.14;100.00
5609;BME280;2826;51.354;9.588;2022-10-16T04:49:13;97904.16;;;13.15;100.00
5609;BME280;2826;51.354;9.588;2022-10-16T04:51:40;97911.13;;;13.14;100.00
5609;BME280;2826;51.354;9.588;2022-10-16T04:54:08;97897.34;;;13.12;100.00
5609;BME280;2826;51.354;9.588;2022-10-16T04:56:35;97905.75;;;13.17;100.00
5609;BME280;2826;51.354;9.588;2022-10-16T04:59:13;97897.88;;;13.19;100.00
5609;BME280;2826;51.354;9.588;2022-10-16T05:01:40;97897.94;;;13.17;100.00
5609;BME280;2826;51.354;9.588;2022-10-16T05:04:08;97896.00;;;13.21;100.00
5609;BME280;2826;51.354;9.588;2022-10-16T05:06:37;97883.91;;;13.20;100.00
5609;BME280;2826;51.354;9.588;2022-10-16T05:09:04;97870.03;;;13.19;100.00
5609;BME280;2826;51.354;9.588;2022-10-16T05:11:31;97859.56;;;13.21;100.00
5609;BME280;2826;51.354;9.588;2022-10-16T05:13:58;97857.81;;;13.22;100.00
5609;BME280;2826;51.354;9.588;2022-10-16T05:16:25;97857.81;;;13.22;100.00
5609;BME280;2826;51.354;9.588;2022-10-16T05:18:52;97862.66;;;13.12;100.00
5609;BME280;2826;51.354;9.588;2022-10-16T05:21:19;97886.28;;;13.25;100.00
5609;BME280;2826;51.354;9.588;2022-10-16T05:23:48;97907.84;;;13.27;100.00
5609;BME280;2826;51.354;9.588;2022-10-16T05:26:15;97917.41;;;13.26;100.00
5609;BME280;2826;51.354;9.588;2022-10-16T05:28:42;97920.88;;;13.27;100.00
5609;BME280;2826;51.354;9.588;2022-10-16T05:31:09;97929.53;;;13.27;100.00
5609;BME280;2826;51.354;9.588;2022-10-16T05:33:36;97926.34;;;13.22;100.00
5609;BME280;2826;51.354;9.588;2022-10-16T05:36:04;97920.28;;;13.22;100.00
5609;BME280;2826;51.354;9.588;2022-10-16T05:38:33;97915.31;;;13.17;100.00
5609;BME280;2826;51.354;9.588;2022-10-16T05:41:01;97916.75;;;13.23;100.00
5609;BME280;2826;51.354;9.588;2022-10-16T05:43:28;97933.88;;;13.27;100.00
5609;BME280;2826;51.354;9.588;2022-10-16T05:45:56;97923.31;;;13.14;100.00
5609;BME280;2826;51.354;9.588;2022-10-16T05:48:23;97935.06;;;13.21;100.00
5609;BME280;2826;51.354;9.588;2022-10-16T05:50:56;97941.78;;;13.25;100.00
5609;BME280;2826;51.354;9.588;2022-10-16T05:53:23;97949.34;;;13.30;100.00
5609;BME280;2826;51.354;9.588;2022-10-16T05:55:54;97936.91;;;13.19;100.00
5609;BME280;2826;51.354;9.588;2022-10-16T05:58:23;97955.50;;;13.29;100.00
5609;BME280;2826;51.354;9.588;2022-10-16T06:00:55;97965.72;;;13.32;100.00
5609;BME280;2826;51.354;9.588;2022-10-16T06:03:22;97967.38;;;13.33;100.00
5609;BME280;2826;51.354;9.588;2022-10-16T06:05:49;97968.91;;;13.37;100.00
5609;BME280;2826;51.354;9.588;2022-10-16T06:08:16;97974.22;;;13.36;100.00
5609;BME280;2826;51.354;9.588;2022-10-16T06:10:44;97971.44;;;13.39;100.00
5609;BME280;2826;51.354;9.588;2022-10-16T06:13:11;97968.91;;;13.37;100.00
5609;BME280;2826;51.354;9.588;2022-10-16T06:15:40;97969.53;;;13.42;100.00
5609;BME280;2826;51.354;9.588;2022-10-16T06:18:08;97968.75;;;13.40;100.00
5609;BME280;2826;51.354;9.588;2022-10-16T06:20:35;97985.22;;;13.41;100.00
5609;BME280;2826;51.354;9.588;2022-10-16T06:23:02;97987.75;;;13.42;100.00
5609;BME280;2826;51.354;9.588;2022-10-16T06:25:29;97994.63;;;13.43;100.00
5609;BME280;2826;51.354;9.588;2022-10-16T06:27:56;97998.06;;;13.44;100.00
5609;BME280;2826;51.354;9.588;2022-10-16T06:30:23;97996.22;;;13.46;100.00
5609;BME280;2826;51.354;9.588;2022-10-16T06:32:52;97992.56;;;13.50;100.00
5609;BME280;2826;51.354;9.588;2022-10-16T06:35:18;98002.13;;;13.50;100.00
5609;BME280;2826;51.354;9.588;2022-10-16T06:37:45;97998.38;;;13.55;100.00
5609;BME280;2826;51.354;9.588;2022-10-16T06:40:12;98002.66;;;13.56;100.00
5609;BME280;2826;51.354;9.588;2022-10-16T06:42:40;97978.94;;;13.45;100.00
5609;BME280;2826;51.354;9.588;2022-10-16T06:45:07;98001.63;;;13.59;100.00
5609;BME280;2826;51.354;9.588;2022-10-16T06:47:34;98013.75;;;13.60;100.00
5609;BME280;2826;51.354;9.588;2022-10-16T06:50:04;98019.88;;;13.59;100.00
5609;BME280;2826;51.354;9.588;2022-10-16T06:52:32;98012.69;;;13.46;100.00
5609;BME280;2826;51.354;9.588;2022-10-16T06:54:59;98037.44;;;13.55;100.00
5609;BME280;2826;51.354;9.588;2022-10-16T06:57:26;98034.84;;;13.55;100.00
5609;BME280;2826;51.354;9.588;2022-10-16T06:59:53;98043.50;;;13.56;100.00
5609;BME280;2826;51.354;9.588;2022-10-16T07:02:20;98026.66;;;13.62;100.00
5609;BME280;2826;51.354;9.588;2022-10-16T07:04:47;98022.97;;;13.66;100.00
5609;BME280;2826;51.354;9.588;2022-10-16T07:07:15;98042.66;;;13.71;100.00
5609;BME280;2826;51.354;9.588;2022-10-16T07:09:42;98055.53;;;13.75;100.00
5609;BME280;2826;51.354;9.588;2022-10-16T07:12:09;98053.94;;;13.72;100.00
5609;BME280;2826;51.354;9.588;2022-10-16T07:14:36;98058.28;;;13.71;100.00
5609;BME280;2826;51.354;9.588;2022-10-16T07:17:02;98076.38;;;13.75;100.00
5609;BME280;2826;51.354;9.588;2022-10-16T07:19:29;98072.31;;;13.69;100.00
5609;BME280;2826;51.354;9.588;2022-10-16T07:21:56;98067.84;;;13.71;100.00
5609;BME280;2826;51.354;9.588;2022-10-16T07:24:24;98069.56;;;13.72;100.00
5609;BME280;2826;51.354;9.588;2022-10-16T07:26:52;98080.06;;;13.70;100.00
5609;BME280;2826;51.354;9.588;2022-10-16T07:29:20;98078.38;;;13.69;100.00
5609;BME280;2826;51.354;9.588;2022-10-16T07:31:48;98084.19;;;13.75;100.00
5609;BME280;2826;51.354;9.588;2022-10-16T07:34:17;98087.53;;;13.77;100.00
5609;BME280;2826;51.354;9.588;2022-10-16T07:36:47;98091.75;;;13.79;100.00
5609;BME280;2826;51.354;9.588;2022-10-16T07:39:14;98104.69;;;13.81;100.00
5609;BME280;2826;51.354;9.588;2022-10-16T07:41:42;98101.25;;;13.80;100.00
5609;BME280;2826;51.354;9.588;2022-10-16T07:44:09;98092.50;;;13.81;100.00
5609;BME280;2826;51.354;9.588;2022-10-16T07:46:36;98087.31;;;13.81;100.00
5609;BME280;2826;51.354;9.588;2022-10-16T07:49:03;98097.81;;;13.80;100.00
5609;BME280;2826;51.354;9.588;2022-10-16T07:51:30;98099.03;;;13.72;100.00
5609;BME280;2826;51.354;9.588;2022-10-16T07:53:57;98119.00;;;13.74;100.00
5609;BME280;2826;51.354;9.588;2022-10-16T07:56:24;98122.28;;;13.77;100.00
5609;BME280;2826;51.354;9.588;2022-10-16T07:58:52;98137.13;;;13.75;100.00
5609;BME280;2826;51.354;9.588;2022-10-16T08:01:19;98134.63;;;13.74;100.00
5609;BME280;2826;51.354;9.588;2022-10-16T08:03:47;98127.78;;;13.71;100.00
5609;BME280;2826;51.354;9.588;2022-10-16T08:06:15;98129.50;;;13.72;100.00
5609;BME280;2826;51.354;9.588;2022-10-16T08:08:42;98121.84;;;13.69;100.00
5609;BME280;2826;51.354;9.588;2022-10-16T08:11:09;98139.50;;;13.80;100.00
5609;BME280;2826;51.354;9.588;2022-10-16T08:13:37;98148.06;;;13.82;100.00
5609;BME280;2826;51.354;9.588;2022-10-16T08:16:05;98159.34;;;13.82;100.00
5609;BME280;2826;51.354;9.588;2022-10-16T08:18:33;98163.56;;;13.85;100.00
5609;BME280;2826;51.354;9.588;2022-10-16T08:21:01;98157.47;;;13.84;100.00
5609;BME280;2826;51.354;9.588;2022-10-16T08:23:28;98168.03;;;13.99;100.00
5609;BME280;2826;51.354;9.588;2022-10-16T08:25:56;98158.69;;;13.95;100.00
5609;BME280;2826;51.354;9.588;2022-10-16T08:28:27;98138.56;;;13.81;100.00
5609;BME280;2826;51.354;9.588;2022-10-16T08:30:54;98169.22;;;14.09;100.00
5609;BME280;2826;51.354;9.588;2022-10-16T08:33:23;98180.41;;;14.11;100.00
5609;BME280;2826;51.354;9.588;2022-10-16T08:35:51;98187.38;;;14.11;100.00
5609;BME280;2826;51.354;9.588;2022-10-16T08:38:19;98194.28;;;14.12;100.00
5609;BME280;2826;51.354;9.588;2022-10-16T08:40:46;98199.66;;;14.09;100.00
5609;BME280;2826;51.354;9.588;2022-10-16T08:43:35;98196.44;;;14.04;100.00
5609;BME280;2826;51.354;9.588;2022-10-16T08:46:17;98199.06;;;14.04;100.00
5609;BME280;2826;51.354;9.588;2022-10-16T08:48:51;98204.34;;;14.02;100.00
5609;BME280;2826;51.354;9.588;2022-10-16T08:51:21;98192.16;;;14.03;100.00
5609;BME280;2826;51.354;9.588;2022-10-16T08:53:52;98177.69;;;13.97;100.00
5609;BME280;2826;51.354;9.588;2022-10-16T08:56:21;98190.22;;;14.06;100.00
5609;BME280;2826;51.354;9.588;2022-10-16T08:58:49;98174.84;;;14.18;100.00
5609;BME280;2826;51.354;9.588;2022-10-16T09:01:19;98189.41;;;14.22;100.00
5609;BME280;2826;51.354;9.588;2022-10-16T09:04:03;98196.72;;;14.31;100.00
5609;BME280;2826;51.354;9.588;2022-10-16T09:06:42;98197.25;;;14.38;100.00
5609;BME280;2826;51.354;9.588;2022-10-16T09:09:30;98214.13;;;14.47;100.00
5609;BME280;2826;51.354;9.588;2022-10-16T09:12:07;98211.94;;;14.55;100.00
5609;BME280;2826;51.354;9.588;2022-10-16T09:14:52;98207.31;;;14.60;100.00
5609;BME280;2826;51.354;9.588;2022-10-16T09:17:46;98176.72;;;14.48;100.00
5609;BME280;2826;51.354;9.588;2022-10-16T09:20:28;98226.88;;;14.85;100.00
5609;BME280;2826;51.354;9.588;2022-10-16T09:23:10;98229.88;;;14.94;100.00
5609;BME280;2826;51.354;9.588;2022-10-16T09:25:39;98231.88;;;15.05;100.00
5609;BME280;2826;51.354;9.588;2022-10-16T09:28:09;98231.00;;;15.20;100.00
5609;BME280;2826;51.354;9.588;2022-10-16T09:30:37;98225.34;;;15.28;100.00
5609;BME280;2826;51.354;9.588;2022-10-16T09:33:05;98215.38;;;15.35;100.00
5609;BME280;2826;51.354;9.588;2022-10-16T09:35:36;98215.25;;;15.36;100.00
5609;BME280;2826;51.354;9.588;2022-10-16T09:38:04;98215.63;;;15.30;99.75
5609;BME280;2826;51.354;9.588;2022-10-16T09:40:34;98219.09;;;15.31;100.00
5609;BME280;2826;51.354;9.588;2022-10-16T09:43:21;98175.25;;;15.05;100.00
5609;BME280;2826;51.354;9.588;2022-10-16T09:45:56;98234.16;;;15.41;99.26
5609;BME280;2826;51.354;9.588;2022-10-16T09:48:25;98220.06;;;15.44;98.24
5609;BME280;2826;51.354;9.588;2022-10-16T09:50:59;98226.50;;;15.53;98.70
5609;BME280;2826;51.354;9.588;2022-10-16T09:53:40;98232.09;;;15.47;97.83
5609;BME280;2826;51.354;9.588;2022-10-16T09:56:10;98236.31;;;15.49;97.77
5609;BME280;2826;51.354;9.588;2022-10-16T09:58:43;98231.56;;;15.56;97.72
5609;BME280;2826;51.354;9.588;2022-10-16T10:01:13;98221.28;;;15.53;97.28
5609;BME280;2826;51.354;9.588;2022-10-16T10:03:42;98233.13;;;15.59;97.28
5609;BME280;2826;51.354;9.588;2022-10-16T10:06:22;98236.47;;;15.61;96.59
5609;BME280;2826;51.354;9.588;2022-10-16T10:09:03;98239.56;;;15.53;96.80
5609;BME280;2826;51.354;9.588;2022-10-16T10:11:44;98255.63;;;15.47;96.92
5609;BME280;2826;51.354;9.588;2022-10-16T10:14:17;98240.34;;;15.24;97.79
5609;BME280;2826;51.354;9.588;2022-10-16T10:16:45;98256.25;;;15.36;97.97
5609;BME280;2826;51.354;9.588;2022-10-16T10:19:16;98254.84;;;15.45;98.35
5609;BME280;2826;51.354;9.588;2022-10-16T10:21:45;98257.22;;;15.64;97.46
5609;BME280;2826;51.354;9.588;2022-10-16T10:24:14;98237.25;;;15.77;96.55
5609;BME280;2826;51.354;9.588;2022-10-16T10:26:47;98247.13;;;16.17;94.91
5609;BME280;2826;51.354;9.588;2022-10-16T10:29:25;98244.75;;;16.27;92.04
5609;BME280;2826;51.354;9.588;2022-10-16T10:32:03;98268.94;;;16.45;91.17
5609;BME280;2826;51.354;9.588;2022-10-16T10:34:42;98272.06;;;16.65;90.64
5609;BME280;2826;51.354;9.588;2022-10-16T10:37:27;98260.09;;;16.76;88.12
5609;BME280;2826;51.354;9.588;2022-10-16T10:40:06;98263.91;;;16.84;89.28
5609;BME280;2826;51.354;9.588;2022-10-16T10:42:42;98263.56;;;17.04;87.77
5609;BME280;2826;51.354;9.588;2022-10-16T10:45:24;98262.38;;;17.22;86.56
5609;BME280;2826;51.354;9.588;2022-10-16T10:48:03;98269.00;;;17.41;86.43
5609;BME280;2826;51.354;9.588;2022-10-16T10:50:38;98273.88;;;17.60;83.37
5609;BME280;2826;51.354;9.588;2022-10-16T10:53:18;98272.81;;;17.76;80.19
5609;BME280;2826;51.354;9.588;2022-10-16T10:55:52;98266.13;;;17.98;79.99
5609;BME280;2826;51.354;9.588;2022-10-16T10:58:49;98271.81;;;18.18;78.14
5609;BME280;2826;51.354;9.588;2022-10-16T11:01:24;98266.75;;;18.27;75.17
5609;BME280;2826;51.354;9.588;2022-10-16T11:04:18;98275.66;;;18.25;74.53
5609;BME280;2826;51.354;9.588;2022-10-16T11:06:52;98271.88;;;18.29;73.63
5609;BME280;2826;51.354;9.588;2022-10-16T11:09:27;98267.44;;;18.42;73.30
5609;BME280;2826;51.354;9.588;2022-10-16T11:11:59;98279.09;;;18.51;71.82
5609;BME280;2826;51.354;9.588;2022-10-16T11:14:30;98280.22;;;18.60;71.96
5609;BME280;2826;51.354;9.588;2022-10-16T11:17:04;98278.66;;;18.58;70.37
5609;BME280;2826;51.354;9.588;2022-10-16T11:19:37;98272.31;;;18.73;71.28
5609;BME280;2826;51.354;9.588;2022-10-16T11:22:14;98271.66;;;18.83;68.75
5609;BME280;2826;51.354;9.588;2022-10-16T11:24:49;98273.31;;;18.84;68.01
5609;BME280;2826;51.354;9.588;2022-10-16T11:27:22;98273.50;;;18.93;67.44
5609;BME280;2826;51.354;9.588;2022-10-16T11:29:56;98268.84;;;18.97;65.83
5609;BME280;2826;51.354;9.588;2022-10-16T11:32:29;98269.66;;;19.11;65.19
5609;BME280;2826;51.354;9.588;2022-10-16T11:35:00;98263.56;;;19.10;62.61
5609;BME280;2826;51.354;9.588;2022-10-16T11:37:33;98274.59;;;19.15;63.31
5609;BME280;2826;51.354;9.588;2022-10-16T11:40:18;98271.22;;;19.13;62.13
5609;BME280;2826;51.354;9.588;2022-10-16T11:42:50;98269.25;;;19.28;62.56
5609;BME280;2826;51.354;9.588;2022-10-16T11:45:26;98265.13;;;19.37;63.03
5609;BME280;2826;51.354;9.588;2022-10-16T11:47:58;98257.03;;;19.63;61.31
5609;BME280;2826;51.354;9.588;2022-10-16T11:50:33;98253.50;;;19.87;60.71
5609;BME280;2826;51.354;9.588;2022-10-16T11:53:04;98244.44;;;20.03;60.46
5609;BME280;2826;51.354;9.588;2022-10-16T11:55:42;98241.44;;;20.19;57.73
5609;BME280;2826;51.354;9.588;2022-10-16T11:58:15;98243.13;;;20.31;56.41
5609;BME280;2826;51.354;9.588;2022-10-16T12:00:47;98245.88;;;20.41;55.50
5609;BME280;2826;51.354;9.588;2022-10-16T12:03:21;98219.28;;;20.33;57.10
5609;BME280;2826;51.354;9.588;2022-10-16T12:05:58;98268.91;;;20.72;56.01
5609;BME280;2826;51.354;9.588;2022-10-16T12:08:27;98255.50;;;20.75;54.29
5609;BME280;2826;51.354;9.588;2022-10-16T12:11:06;98237.34;;;20.49;53.95
5609;BME280;2826;51.354;9.588;2022-10-16T12:13:35;98252.50;;;20.68;56.50
5609;BME280;2826;51.354;9.588;2022-10-16T12:16:23;98260.50;;;20.89;55.57
5609;BME280;2826;51.354;9.588;2022-10-16T12:19:03;98257.13;;;20.99;53.47
5609;BME280;2826;51.354;9.588;2022-10-16T12:21:35;98256.69;;;21.15;53.64
5609;BME280;2826;51.354;9.588;2022-10-16T12:24:03;98257.63;;;21.25;51.22
5609;BME280;2826;51.354;9.588;2022-10-16T12:26:33;98260.75;;;21.19;51.75
5609;BME280;2826;51.354;9.588;2022-10-16T12:29:14;98265.75;;;21.01;52.27
5609;BME280;2826;51.354;9.588;2022-10-16T12:31:47;98255.13;;;20.91;53.28
5609;BME280;2826;51.354;9.588;2022-10-16T12:34:22;98267.31;;;20.92;53.20
5609;BME280;2826;51.354;9.588;2022-10-16T12:36:50;98261.09;;;20.93;51.86
5609;BME280;2826;51.354;9.588;2022-10-16T12:39:27;98263.59;;;20.95;52.57
5609;BME280;2826;51.354;9.588;2022-10-16T12:42:04;98266.25;;;21.16;53.17
5609;BME280;2826;51.354;9.588;2022-10-16T12:44:32;98271.84;;;21.34;51.38
5609;BME280;2826;51.354;9.588;2022-10-16T12:46:59;98267.72;;;21.41;50.64
5609;BME280;2826;51.354;9.588;2022-10-16T12:49:31;98272.50;;;21.48;50.25
5609;BME280;2826;51.354;9.588;2022-10-16T12:51:59;98275.66;;;21.41;50.65
5609;BME280;2826;51.354;9.588;2022-10-16T12:54:28;98255.28;;;21.11;50.54
5609;BME280;2826;51.354;9.588;2022-10-16T12:57:07;98267.59;;;20.78;51.87
5609;BME280;2826;51.354;9.588;2022-10-16T12:59:42;98277.56;;;20.28;53.88
5609;BME280;2826;51.354;9.588;2022-10-16T13:02:36;98272.50;;;19.91;55.52
5609;BME280;2826;51.354;9.588;2022-10-16T13:05:23;98278.78;;;19.54;57.84
5609;BME280;2826;51.354;9.588;2022-10-16T13:08:01;98278.38;;;19.36;59.64
5609;BME280;2826;51.354;9.588;2022-10-16T13:10:36;98275.69;;;19.24;60.60
5609;BME280;2826;51.354;9.588;2022-10-16T13:16:30;98279.47;;;19.09;62.18
5609;BME280;2826;51.354;9.588;2022-10-16T13:19:11;98273.03;;;19.13;62.18
5609;BME280;2826;51.354;9.588;2022-10-16T13:21:48;98291.25;;;19.27;61.84
5609;BME280;2826;51.354;9.588;2022-10-16T13:24:26;98290.03;;;19.56;61.69
5609;BME280;2826;51.354;9.588;2022-10-16T13:27:05;98309.13;;;19.94;62.14
5609;BME280;2826;51.354;9.588;2022-10-16T13:29:34;98302.97;;;20.29;59.80
5609;BME280;2826;51.354;9.588;2022-10-16T13:32:08;98299.81;;;20.58;58.97
5609;BME280;2826;51.354;9.588;2022-10-16T13:34:44;98300.91;;;20.67;59.46
5609;BME280;2826;51.354;9.588;2022-10-16T13:37:17;98310.84;;;20.41;58.08